createdAt,value
2023-05-04T00:02:35.689Z,3.03
2023-05-04T00:07:38.849Z,2.97
2023-05-04T00:12:42.411Z,2.74
2023-05-04T00:17:45.295Z,2.84
2023-05-04T00:22:48.291Z,2.77
2023-05-04T00:27:51.188Z,2.67
2023-05-04T00:32:54.217Z,2.67
2023-05-04T00:37:56.948Z,2.62
2023-05-04T00:42:59.580Z,2.54
2023-05-04T00:48:02.760Z,2.47
2023-05-04T00:53:09.725Z,2.40
2023-05-04T00:58:12.561Z,2.39
2023-05-04T01:03:15.690Z,2.33
2023-05-04T01:08:27.584Z,2.28
2023-05-04T01:13:34.790Z,2.26
2023-05-04T01:18:37.700Z,2.22
2023-05-04T01:23:40.372Z,2.17
2023-05-04T01:28:53.208Z,2.17
2023-05-04T01:33:57.303Z,2.11
2023-05-04T01:39:00.150Z,2.28
2023-05-04T01:44:04.158Z,2.29
2023-05-04T01:49:08.089Z,2.37
2023-05-04T01:54:10.714Z,3.61
2023-05-04T01:59:13.685Z,6.02
2023-05-04T02:04:16.662Z,9.24
2023-05-04T02:09:19.691Z,11.55
2023-05-04T02:14:22.364Z,13.73
2023-05-04T02:19:25.029Z,15.36
2023-05-04T02:24:28.627Z,17.31
2023-05-04T02:29:31.294Z,19.01
2023-05-04T02:34:35.451Z,20.41
2023-05-04T02:39:38.174Z,21.54
2023-05-04T02:44:40.947Z,22.39
2023-05-04T02:49:44.967Z,22.61
2023-05-04T02:54:47.736Z,18.12
2023-05-04T02:59:51.423Z,15.36
2023-05-04T03:04:54.187Z,13.01
2023-05-04T03:09:56.911Z,11.95
2023-05-04T03:14:59.640Z,11.10
2023-05-04T03:20:02.696Z,10.42
2023-05-04T03:25:08.077Z,10.54
2023-05-04T03:30:11.879Z,10.68
2023-05-04T03:35:15.082Z,11.01
2023-05-04T03:40:23.128Z,11.19
2023-05-04T03:45:29.005Z,10.16
2023-05-04T03:50:33.673Z,9.50
2023-05-04T03:55:36.432Z,9.46
2023-05-04T04:00:39.145Z,9.17
2023-05-04T04:05:50.265Z,8.99
2023-05-04T04:10:53.194Z,9.06
2023-05-04T04:15:56.190Z,8.88
2023-05-04T04:20:58.876Z,8.54
2023-05-04T04:26:01.761Z,8.36
2023-05-04T04:31:04.771Z,8.52
2023-05-04T04:36:08.204Z,9.11
2023-05-04T04:41:11.240Z,9.03
2023-05-04T04:46:13.923Z,9.11
2023-05-04T04:51:16.536Z,9.10
2023-05-04T04:56:19.225Z,9.51
2023-05-04T05:01:22.083Z,9.32
2023-05-04T05:06:25.654Z,8.98
2023-05-04T05:11:28.453Z,9.12
2023-05-04T05:16:31.117Z,9.28
2023-05-04T05:21:33.833Z,9.39
2023-05-04T05:26:38.600Z,9.62
2023-05-04T05:31:41.355Z,9.76
2023-05-04T05:36:44.807Z,9.86
2023-05-04T05:41:47.698Z,10.28
2023-05-04T05:46:50.487Z,10.69
2023-05-04T05:51:53.143Z,10.93
2023-05-04T05:56:55.826Z,10.73
2023-05-04T06:01:58.601Z,11.06
2023-05-04T06:07:01.239Z,11.26
2023-05-04T06:12:06.576Z,11.65
2023-05-04T06:17:09.819Z,11.46
2023-05-04T06:22:12.588Z,11.23
2023-05-04T06:27:15.313Z,11.75
2023-05-04T06:32:18.072Z,11.87
2023-05-04T06:37:20.767Z,11.96
2023-05-04T06:42:23.478Z,11.47
2023-05-04T06:47:27.709Z,11.34
2023-05-04T06:52:30.351Z,11.57
2023-05-04T06:57:33.265Z,11.82
2023-05-04T07:02:36.061Z,11.64
2023-05-04T07:07:38.942Z,11.81
2023-05-04T07:12:42.121Z,11.99
2023-05-04T07:17:44.942Z,12.34
2023-05-04T07:22:49.226Z,12.49
2023-05-04T07:27:52.311Z,12.62
2023-05-04T07:32:55.125Z,12.53
2023-05-04T07:37:57.830Z,12.60
2023-05-04T07:43:00.613Z,13.00
2023-05-04T07:48:03.442Z,12.91
2023-05-04T07:53:06.251Z,12.94
2023-05-04T07:58:10.212Z,13.55
2023-05-04T08:03:12.812Z,13.99
2023-05-04T08:08:15.784Z,13.00
2023-05-04T08:13:18.480Z,12.83
2023-05-04T08:35:29.223Z,15.17
2023-05-04T08:40:33.842Z,15.55
2023-05-04T08:45:40.453Z,14.58
2023-05-04T08:50:43.654Z,13.98
2023-05-04T08:55:47.848Z,14.28
2023-05-04T09:00:51.445Z,14.75
2023-05-04T09:05:54.647Z,14.44
2023-05-04T09:10:57.806Z,14.07
2023-05-04T09:16:00.753Z,14.24
2023-05-04T09:21:03.545Z,14.64
2023-05-04T09:26:06.287Z,15.15
2023-05-04T09:31:09.131Z,15.35
2023-05-04T09:36:21.354Z,15.70
2023-05-04T09:41:33.241Z,15.94
2023-05-04T09:46:36.645Z,15.84
2023-05-04T09:51:39.396Z,15.38
2023-05-04T09:56:47.709Z,15.18
2023-05-04T10:01:50.494Z,15.22
2023-05-04T10:06:55.326Z,15.21
2023-05-04T10:12:00.888Z,14.78
2023-05-04T10:17:18.863Z,14.81
2023-05-04T10:22:56.635Z,13.79
2023-05-04T10:28:17.209Z,13.91
2023-05-04T10:33:20.065Z,14.42
2023-05-04T10:38:36.199Z,15.17
2023-05-04T10:43:39.040Z,15.66
2023-05-04T10:48:41.992Z,14.74
2023-05-04T10:53:44.868Z,15.28
2023-05-04T10:58:48.238Z,15.84
2023-05-04T11:03:52.825Z,16.47
2023-05-04T11:27:49.379Z,17.38
2023-05-04T11:32:54.247Z,17.96
2023-05-04T11:37:57.347Z,18.54
2023-05-04T11:43:00.629Z,18.47
2023-05-04T11:48:03.956Z,18.32
2023-05-04T11:53:09.454Z,18.44
2023-05-04T11:58:12.341Z,18.01
2023-05-04T12:03:39.776Z,17.64
2023-05-04T12:08:50.281Z,17.31
2023-05-04T12:14:10.378Z,17.19
2023-05-04T12:19:13.516Z,16.73
2023-05-04T12:24:16.513Z,16.86
2023-05-04T12:29:19.235Z,16.16
2023-05-04T12:34:22.147Z,16.00
2023-05-04T12:39:24.850Z,16.73
2023-05-04T12:44:28.227Z,16.74
2023-05-04T12:49:31.055Z,16.39
2023-05-04T12:54:33.677Z,16.23
2023-05-04T12:59:36.550Z,16.21
2023-05-04T13:04:40.248Z,16.35
2023-05-04T13:09:43.083Z,16.23
2023-05-04T13:14:45.674Z,16.19
2023-05-04T13:19:48.863Z,16.40
2023-05-04T13:24:51.603Z,16.48
2023-05-04T13:29:54.251Z,16.27
2023-05-04T13:34:56.939Z,15.70
2023-05-04T13:40:01.700Z,15.90
2023-05-04T13:45:07.059Z,15.87
2023-05-04T13:50:10.429Z,15.77
2023-05-04T13:55:13.464Z,15.56
2023-05-04T14:00:17.975Z,15.86
2023-05-04T14:05:21.575Z,15.83
2023-05-04T14:10:24.245Z,15.93
2023-05-04T14:15:27.735Z,15.97
2023-05-04T14:20:30.768Z,15.81
2023-05-04T14:25:33.419Z,15.73
2023-05-04T14:30:36.814Z,15.65
2023-05-04T14:35:43.678Z,15.49
2023-05-04T14:40:49.431Z,15.32
2023-05-04T14:45:53.376Z,15.54
2023-05-04T14:50:56.938Z,15.88
2023-05-04T14:56:00.308Z,15.65
2023-05-04T15:01:03.028Z,15.49
2023-05-04T15:06:06.483Z,15.34
2023-05-04T15:11:09.102Z,15.12
2023-05-04T15:16:20.548Z,15.23
2023-05-04T15:21:23.269Z,15.19
2023-05-04T15:26:26.238Z,15.03
2023-05-04T15:31:28.958Z,14.85
2023-05-04T15:36:31.940Z,14.82
2023-05-04T15:41:35.663Z,14.87
2023-05-04T15:46:38.492Z,14.82
2023-05-04T15:51:42.048Z,14.92
2023-05-04T15:56:44.986Z,14.84
2023-05-04T16:01:47.739Z,14.64
2023-05-04T16:06:50.805Z,14.59
2023-05-04T16:11:53.476Z,14.51
2023-05-04T16:16:56.422Z,14.37
2023-05-04T16:21:59.152Z,14.23
2023-05-04T16:27:02.094Z,13.90
2023-05-04T16:32:05.013Z,13.66
2023-05-04T16:37:09.734Z,13.41
2023-05-04T16:42:13.612Z,13.32
2023-05-04T16:47:16.371Z,13.11
2023-05-04T16:52:19.117Z,13.02
2023-05-04T16:57:21.843Z,12.81
2023-05-04T17:02:24.665Z,12.65
2023-05-04T17:07:27.858Z,12.56
2023-05-04T17:12:31.271Z,12.41
2023-05-04T17:17:34.075Z,12.37
2023-05-04T17:22:36.998Z,12.29
2023-05-04T17:27:39.814Z,12.26
2023-05-04T17:32:43.137Z,12.24
2023-05-04T17:37:45.878Z,12.02
2023-05-04T17:42:48.696Z,11.73
2023-05-04T17:47:52.047Z,11.67
2023-05-04T17:52:55.655Z,11.39
2023-05-04T17:57:58.434Z,11.11
2023-05-04T18:03:01.563Z,10.96
2023-05-04T18:08:04.417Z,10.83
2023-05-04T18:13:07.250Z,10.66
2023-05-04T18:18:11.356Z,10.58
2023-05-04T18:23:14.087Z,10.51
2023-05-04T18:28:17.420Z,10.40
2023-05-04T18:33:20.153Z,10.27
2023-05-04T18:38:22.835Z,10.10
2023-05-04T18:43:25.530Z,9.98
2023-05-04T18:48:28.173Z,9.93
2023-05-04T18:53:31.078Z,9.79
2023-05-04T18:58:35.672Z,9.72
2023-05-04T19:03:38.357Z,9.61
2023-05-04T19:08:41.138Z,9.57
2023-05-04T19:13:44.705Z,9.58
2023-05-04T19:18:47.775Z,9.52
2023-05-04T19:23:50.506Z,9.54
2023-05-04T19:28:53.336Z,9.41
2023-05-04T19:33:56.115Z,9.44
2023-05-04T19:38:58.920Z,9.53
2023-05-04T19:44:01.722Z,9.28
2023-05-04T19:49:04.712Z,9.38
2023-05-04T19:54:08.727Z,9.16
2023-05-04T19:59:12.892Z,8.94
2023-05-04T20:04:15.528Z,8.83
2023-05-04T20:09:18.512Z,8.71
2023-05-04T20:14:21.158Z,8.62
2023-05-04T20:19:23.804Z,8.51
2023-05-04T20:24:28.820Z,8.58
2023-05-04T20:29:32.242Z,8.51
2023-05-04T20:34:35.837Z,8.42
2023-05-04T20:39:40.693Z,8.41
2023-05-04T20:44:43.508Z,8.27
2023-05-04T20:49:46.126Z,8.10
2023-05-04T20:54:48.791Z,8.10
2023-05-04T20:59:51.484Z,8.04
2023-05-04T21:04:54.158Z,7.82
2023-05-04T21:10:00.236Z,7.91
2023-05-04T21:15:02.951Z,7.89
2023-05-04T21:20:08.048Z,7.85
2023-05-04T21:25:11.003Z,7.90
2023-05-04T21:30:13.790Z,7.89
2023-05-04T21:35:21.000Z,8.00
2023-05-04T21:40:27.502Z,8.06
2023-05-04T21:45:33.516Z,7.87
2023-05-04T21:50:36.196Z,7.97
2023-05-04T21:55:38.862Z,7.93
2023-05-04T22:00:45.577Z,7.93
2023-05-04T22:05:55.464Z,7.89
2023-05-04T22:10:58.844Z,7.77
2023-05-04T22:16:01.653Z,7.73
2023-05-04T22:21:04.404Z,7.83
2023-05-04T22:26:07.033Z,7.86
2023-05-04T22:31:09.758Z,7.68
2023-05-04T22:36:12.663Z,7.61
2023-05-04T22:41:15.388Z,7.53
2023-05-04T22:46:18.143Z,7.56
2023-05-04T22:51:20.861Z,7.66
2023-05-04T22:56:23.477Z,7.69
2023-05-04T23:01:27.603Z,7.70
2023-05-04T23:06:30.250Z,7.62
2023-05-04T23:11:33.460Z,7.43
2023-05-04T23:16:36.155Z,7.42
2023-05-04T23:21:39.917Z,7.33
2023-05-04T23:26:42.580Z,7.20
2023-05-04T23:31:45.446Z,7.07
2023-05-04T23:36:48.129Z,6.99
2023-05-04T23:41:50.798Z,6.92
2023-05-04T23:46:53.553Z,6.53
2023-05-04T23:51:56.488Z,6.32
2023-05-04T23:56:59.296Z,6.08
